Time;durP1;ratioP1;P1;durP2;ratioP2;P2;SDS_P1;SDS_P2;PMS_P1;PMS_P2;Temp;Humidity;BMP_temperature;BMP_pressure;BME280_temperature;BME280_humidity;BME280_pressure;Samples;Min_cycle;Max_cycle;Signal;HPM_P1;HPM_P2
2023/10/21 00:01:49;;;;;;;0.68;0.68;;;;;;;12.18;100.00;96175.22;15269538;19;20011;-42
2023/10/21 00:07:16;;;;;;;1.40;0.70;;;;;;;12.08;100.00;96180.31;15269515;19;20055;-42
2023/10/21 00:12:42;;;;;;;0.75;0.70;;;;;;;12.01;100.00;96191.19;15258408;19;20036;-46
2023/10/21 00:18:08;;;;;;;0.77;0.70;;;;;;;11.98;100.00;96196.22;15259560;19;20709;-46
2023/10/21 00:23:35;;;;;;;0.90;0.73;;;;;;;11.98;100.00;96197.03;15266104;19;20078;-47
2023/10/21 00:28:59;;;;;;;1.10;0.60;;;;;;;12.01;100.00;96217.34;15269835;19;20378;-47
2023/10/21 00:34:37;;;;;;;2.22;0.70;;;;;;;12.02;100.00;96219.00;15265525;19;20078;-45
2023/10/21 00:40:10;;;;;;;0.55;0.55;;;;;;;12.02;100.00;96219.84;15270182;19;20078;-44
2023/10/21 00:45:35;;;;;;;1.00;0.70;;;;;;;12.00;100.00;96218.38;15273458;19;20022;-45
2023/10/21 00:51:01;;;;;;;0.60;0.57;;;;;;;12.00;100.00;96210.28;15284471;19;20403;-45
2023/10/21 00:56:29;;;;;;;2.40;0.70;;;;;;;12.05;100.00;96217.72;15278513;19;20015;-46
2023/10/21 01:01:54;;;;;;;1.83;0.80;;;;;;;12.09;100.00;96233.25;15281736;19;20015;-46
2023/10/21 01:07:24;;;;;;;0.70;0.63;;;;;;;12.11;100.00;96231.13;15280663;19;20020;-44
2023/10/21 01:12:59;;;;;;;0.73;0.73;;;;;;;12.10;100.00;96223.25;15278395;19;20337;-49
2023/10/21 01:18:25;;;;;;;0.73;0.63;;;;;;;12.11;100.00;96227.63;15280671;19;20011;-46
2023/10/21 01:23:52;;;;;;;1.05;0.73;;;;;;;12.13;100.00;96223.63;15278136;19;20021;-45
2023/10/21 01:29:17;;;;;;;1.50;0.93;;;;;;;12.16;100.00;96223.19;15281295;19;20014;-47
2023/10/21 01:34:43;;;;;;;0.73;0.70;;;;;;;12.16;100.00;96235.88;15275832;19;20021;-47
2023/10/21 01:40:11;;;;;;;2.92;1.20;;;;;;;12.13;100.00;96228.22;15280116;19;20075;-47
2023/10/21 01:45:38;;;;;;;1.10;0.93;;;;;;;12.07;100.00;96219.16;15278253;19;20347;-46
2023/10/21 01:51:04;;;;;;;1.40;1.00;;;;;;;11.99;100.00;96212.19;15278828;19;20291;-44
2023/10/21 01:56:32;;;;;;;0.95;0.88;;;;;;;11.95;100.00;96219.03;15272133;19;20024;-46
2023/10/21 02:01:56;;;;;;;2.25;1.00;;;;;;;11.94;100.00;96238.16;15276724;19;20014;-45
2023/10/21 02:07:24;;;;;;;3.03;0.90;;;;;;;11.91;100.00;96254.78;15276475;19;20014;-46
2023/10/21 02:12:52;;;;;;;1.58;0.95;;;;;;;11.87;100.00;96254.41;15276851;19;20014;-45
2023/10/21 02:18:17;;;;;;;1.58;0.90;;;;;;;11.85;100.00;96251.09;15275745;19;20539;-46
2023/10/21 02:23:42;;;;;;;2.15;1.10;;;;;;;11.78;100.00;96261.94;15271533;19;20608;-47
2023/10/21 02:29:10;;;;;;;1.10;1.00;;;;;;;11.75;100.00;96253.50;15277152;19;20020;-47
2023/10/21 02:34:36;;;;;;;1.33;1.00;;;;;;;11.73;100.00;96253.72;15269949;19;20047;-45
2023/10/21 02:40:00;;;;;;;1.10;1.00;;;;;;;11.75;100.00;96275.06;15274703;19;20043;-44
2023/10/21 02:45:29;;;;;;;1.50;0.90;;;;;;;11.76;100.00;96269.44;15270404;19;20337;-49
2023/10/21 02:50:55;;;;;;;1.60;1.00;;;;;;;11.74;100.00;96265.31;15276463;19;20006;-46
2023/10/21 02:56:20;;;;;;;1.05;0.98;;;;;;;11.68;100.00;96265.19;15271205;19;20467;-47
2023/10/21 03:01:47;;;;;;;1.80;1.00;;;;;;;11.61;100.00;96259.00;15272764;19;20018;-47
2023/10/21 03:07:13;;;;;;;3.10;1.00;;;;;;;11.54;100.00;96266.34;15272696;19;20029;-52
2023/10/21 03:12:38;;;;;;;2.05;1.00;;;;;;;11.46;100.00;96280.91;15269234;19;20078;-47
2023/10/21 03:18:06;;;;;;;1.48;1.00;;;;;;;11.44;100.00;96279.50;15273857;19;20014;-49
2023/10/21 03:23:31;;;;;;;1.20;1.10;;;;;;;11.41;100.00;96284.28;15270996;19;20007;-51
2023/10/21 03:28:56;;;;;;;1.20;1.08;;;;;;;11.36;100.00;96286.78;15269426;19;20006;-49
2023/10/21 03:34:24;;;;;;;2.58;1.08;;;;;;;11.30;100.00;96292.22;15268701;19;20043;-50
2023/10/21 03:39:49;;;;;;;2.50;1.20;;;;;;;11.21;100.00;96300.59;15272566;19;20010;-48
2023/10/21 03:45:15;;;;;;;3.85;1.10;;;;;;;11.19;100.00;96301.84;15268634;19;20039;-51
2023/10/21 03:50:42;;;;;;;1.33;0.90;;;;;;;11.18;100.00;96300.19;15271417;19;20360;-51
2023/10/21 03:56:08;;;;;;;1.55;0.90;;;;;;;11.20;100.00;96316.97;15268752;19;20038;-50
2023/10/21 04:01:34;;;;;;;1.67;0.90;;;;;;;11.24;100.00;96326.25;15266784;19;20364;-51
2023/10/21 04:07:01;;;;;;;0.90;0.90;;;;;;;11.30;100.00;96338.88;15262341;19;20364;-50
2023/10/21 04:12:25;;;;;;;0.95;0.70;;;;;;;11.38;100.00;96327.84;15267920;19;20029;-48
2023/10/21 04:17:51;;;;;;;0.98;0.80;;;;;;;11.45;100.00;96335.06;15265858;19;20019;-47
2023/10/21 04:23:19;;;;;;;1.92;0.80;;;;;;;11.54;100.00;96347.22;15267926;19;20417;-51
2023/10/21 04:28:44;;;;;;;0.88;0.88;;;;;;;11.60;100.00;96364.41;15270019;19;20015;-51
2023/10/21 04:34:10;;;;;;;1.13;0.90;;;;;;;11.62;100.00;96359.63;15265716;19;20345;-51
2023/10/21 04:39:37;;;;;;;0.77;0.60;;;;;;;11.68;100.00;96367.66;15265805;19;20025;-50
2023/10/21 04:45:02;;;;;;;1.35;0.80;;;;;;;11.72;100.00;96360.78;15263452;19;20022;-48
2023/10/21 04:50:27;;;;;;;0.50;0.50;;;;;;;11.77;100.00;96356.59;15269809;19;20014;-51
2023/10/21 04:56:02;;;;;;;0.70;0.50;;;;;;;11.86;100.00;96363.38;15265088;19;20015;-48
2023/10/21 05:01:27;;;;;;;0.65;0.65;;;;;;;11.97;100.00;96369.94;15264111;19;20419;-49
2023/10/21 05:06:51;;;;;;;0.50;0.50;;;;;;;12.06;100.00;96375.88;15268485;19;20094;-49
2023/10/21 05:12:19;;;;;;;1.25;0.50;;;;;;;12.11;100.00;96368.75;15261982;19;20022;-51
2023/10/21 05:17:44;;;;;;;0.40;0.40;;;;;;;12.18;100.00;96374.94;15263960;19;20018;-50
2023/10/21 05:23:10;;;;;;;0.40;0.40;;;;;;;12.26;100.00;96360.34;15263980;19;20018;-52
2023/10/21 05:28:37;;;;;;;0.43;0.30;;;;;;;12.30;100.00;96356.13;15263058;19;20475;-52
2023/10/21 05:34:02;;;;;;;0.47;0.38;;;;;;;12.40;100.00;96365.63;15275251;19;20490;-52
2023/10/21 05:39:20;;;;;;;1.65;0.50;;;;;;;12.53;100.00;96370.84;15281004;19;20543;-47
2023/10/21 05:44:47;;;;;;;0.38;0.30;;;;;;;12.68;100.00;96377.75;15271763;19;20027;-51
2023/10/21 05:50:13;;;;;;;1.77;0.30;;;;;;;12.77;100.00;96355.63;15282100;19;20018;-48
2023/10/21 05:55:38;;;;;;;1.52;0.40;;;;;;;12.88;100.00;96351.31;15276453;19;20018;-48
2023/10/21 06:01:11;;;;;;;0.28;0.20;;;;;;;12.92;100.00;96341.72;15279802;19;20348;-47
2023/10/21 06:06:36;;;;;;;1.00;0.50;;;;;;;12.98;100.00;96363.50;15277174;19;20312;-53
2023/10/21 06:12:01;;;;;;;0.75;0.20;;;;;;;13.08;100.00;96369.19;15273238;19;20447;-48
2023/10/21 06:17:28;;;;;;;0.68;0.22;;;;;;;13.17;100.00;96375.91;15270186;19;20018;-49
2023/10/21 06:22:54;;;;;;;0.20;0.20;;;;;;;13.21;100.00;96358.19;15274929;19;20015;-49
2023/10/21 06:28:18;;;;;;;0.15;0.10;;;;;;;13.22;100.00;96364.41;15276137;19;20017;-50
2023/10/21 06:33:45;;;;;;;0.47;0.10;;;;;;;13.24;100.00;96355.00;15273682;19;20018;-52
2023/10/21 06:39:10;;;;;;;0.25;0.20;;;;;;;13.25;100.00;96372.88;15277880;19;20346;-51
2023/10/21 06:44:36;;;;;;;1.15;0.20;;;;;;;13.30;100.00;96374.09;15267149;19;20027;-52
2023/10/21 06:50:04;;;;;;;0.75;0.52;;;;;;;13.32;100.00;96396.31;15271345;19;20017;-50
2023/10/21 06:55:29;;;;;;;1.13;0.30;;;;;;;13.35;100.00;96398.53;15271536;19;20619;-48
2023/10/21 07:00:56;;;;;;;0.20;0.20;;;;;;;13.36;100.00;96417.25;15275721;19;20010;-49
2023/10/21 07:06:23;;;;;;;0.13;0.13;;;;;;;13.46;100.00;96427.59;15272112;19;20073;-50
2023/10/21 07:11:49;;;;;;;0.60;0.50;;;;;;;13.54;100.00;96432.66;15272888;19;20022;-47
2023/10/21 07:17:14;;;;;;;0.85;0.50;;;;;;;13.59;100.00;96436.53;15269317;19;20015;-52
2023/10/21 07:22:41;;;;;;;0.95;0.88;;;;;;;13.67;100.00;96445.16;15266812;19;20018;-50
2023/10/21 07:28:07;;;;;;;3.80;0.25;;;;;;;13.74;100.00;96455.91;15275118;19;20021;-48
2023/10/21 07:33:32;;;;;;;0.80;0.20;;;;;;;13.82;100.00;96474.50;15269077;19;20383;-52
2023/10/21 07:39:00;;;;;;;0.28;0.10;;;;;;;13.91;100.00;96482.31;15270363;19;20661;-50
2023/10/21 07:44:28;;;;;;;0.20;0.20;;;;;;;13.96;100.00;96491.41;15269001;19;20015;-51
2023/10/21 07:49:54;;;;;;;0.10;0.10;;;;;;;14.02;100.00;96492.34;15273423;19;20018;-49
2023/10/21 07:55:39;;;;;;;0.73;0.30;;;;;;;14.10;100.00;96494.72;15254751;19;20139;-52
2023/10/21 08:01:19;;;;;;;0.80;0.20;;;;;;;14.28;100.00;96511.97;15270101;19;20089;-52
2023/10/21 08:06:44;;;;;;;0.35;0.10;;;;;;;14.42;100.00;96516.09;15261502;19;20013;-51
2023/10/21 08:12:11;;;;;;;0.15;0.03;;;;;;;14.54;100.00;96520.72;15266740;19;20026;-51
2023/10/21 08:17:37;;;;;;;0.10;0.08;;;;;;;14.64;100.00;96535.34;15264736;19;20500;-50
2023/10/21 08:23:03;;;;;;;1.38;0.15;;;;;;;14.79;100.00;96525.97;15267523;19;20006;-49
2023/10/21 08:28:30;;;;;;;0.28;0.10;;;;;;;14.93;100.00;96524.66;15261976;19;20021;-51
2023/10/21 08:33:55;;;;;;;1.05;0.10;;;;;;;14.99;100.00;96541.06;15265978;19;20053;-49
2023/10/21 08:39:20;;;;;;;1.02;0.30;;;;;;;15.07;100.00;96557.78;15265756;19;20093;-52
2023/10/21 08:44:48;;;;;;;0.73;0.28;;;;;;;15.28;100.00;96566.38;15262729;19;20011;-50
2023/10/21 08:50:13;;;;;;;0.90;0.20;;;;;;;15.39;100.00;96579.13;15267887;19;20728;-48
2023/10/21 08:55:40;;;;;;;0.50;0.20;;;;;;;15.45;100.00;96569.19;15265980;19;20409;-51
2023/10/21 09:01:07;;;;;;;2.47;0.25;;;;;;;15.49;100.00;96580.41;15262683;19;20014;-49
2023/10/21 09:06:33;;;;;;;0.93;0.20;;;;;;;15.56;100.00;96595.50;15273631;19;20074;-48
2023/10/21 09:12:17;;;;;;;0.57;0.20;;;;;;;15.77;100.00;96616.81;15280668;19;20022;-53
2023/10/21 09:17:46;;;;;;;2.85;0.22;;;;;;;15.81;100.00;96599.81;15276204;19;20030;-52
2023/10/21 09:23:12;;;;;;;0.28;0.13;;;;;;;15.91;100.00;96623.69;15278971;19;20121;-53
2023/10/21 09:28:37;;;;;;;0.10;0.10;;;;;;;16.02;100.00;96613.81;15280090;19;20031;-49
2023/10/21 09:34:04;;;;;;;0.25;0.10;;;;;;;16.10;100.00;96605.31;15272563;19;20520;-49
2023/10/21 09:39:33;;;;;;;0.20;0.10;;;;;;;16.04;100.00;96606.28;15277287;19;20086;-52
2023/10/21 09:44:59;;;;;;;0.20;0.10;;;;;;;16.14;100.00;96613.81;15272185;19;20020;-50
2023/10/21 09:50:27;;;;;;;2.10;0.15;;;;;;;16.14;100.00;96617.34;15276607;19;20494;-50
2023/10/21 09:55:53;;;;;;;0.65;0.10;;;;;;;16.19;100.00;96622.03;15277703;19;20532;-53
2023/10/21 10:01:23;;;;;;;0.22;0.10;;;;;;;16.18;100.00;96613.06;15278853;19;20014;-55
2023/10/21 10:06:52;;;;;;;0.20;0.10;;;;;;;16.20;100.00;96631.84;15272754;19;20014;-50
2023/10/21 10:12:34;;;;;;;0.63;0.10;;;;;;;16.21;100.00;96644.34;15275524;19;20023;-49
2023/10/21 10:17:59;;;;;;;0.20;0.10;;;;;;;16.30;100.00;96659.22;15274923;19;20018;-50
2023/10/21 10:23:28;;;;;;;2.00;0.15;;;;;;;16.32;100.00;96645.41;15274127;19;20668;-50
2023/10/21 10:28:54;;;;;;;0.20;0.10;;;;;;;16.36;100.00;96667.47;15278094;19;20014;-48
2023/10/21 10:34:20;;;;;;;0.08;0.03;;;;;;;16.38;100.00;96678.94;15268263;19;20018;-50
2023/10/21 10:39:50;;;;;;;0.40;0.20;;;;;;;16.46;100.00;96683.97;15272561;19;20026;-54
2023/10/21 10:45:15;;;;;;;0.68;0.10;;;;;;;16.58;100.00;96690.19;15269098;19;20047;-52
2023/10/21 10:50:40;;;;;;;0.38;0.10;;;;;;;16.74;100.00;96679.63;15276817;19;20014;-51
2023/10/21 10:56:14;;;;;;;0.80;0.10;;;;;;;16.87;100.00;96690.19;15273911;19;20015;-51
2023/10/21 11:01:38;;;;;;;0.25;0.10;;;;;;;16.98;100.00;96714.88;15275771;19;20032;-49
2023/10/21 11:07:04;;;;;;;0.38;0.22;;;;;;;17.05;100.00;96708.19;15269060;19;20007;-49
2023/10/21 11:12:38;;;;;;;0.35;0.10;;;;;;;17.17;100.00;96727.19;15271424;19;20026;-49
2023/10/21 11:18:04;;;;;;;0.20;0.20;;;;;;;17.20;100.00;96737.59;15272254;19;20020;-49
2023/10/21 11:23:31;;;;;;;0.77;0.20;;;;;;;17.17;100.00;96742.69;15269046;19;20022;-49
2023/10/21 11:29:00;;;;;;;0.70;0.10;;;;;;;17.11;100.00;96739.03;15273479;19;20475;-49
2023/10/21 11:34:28;;;;;;;0.20;0.10;;;;;;;17.31;100.00;96735.84;15268474;19;20070;-49
2023/10/21 11:39:55;;;;;;;0.20;0.17;;;;;;;17.63;100.00;96742.63;15265710;19;20016;-48
2023/10/21 11:45:22;;;;;;;0.20;0.10;;;;;;;17.89;100.00;96741.09;15263282;19;20031;-50
2023/10/21 11:50:49;;;;;;;0.35;0.10;;;;;;;18.07;100.00;96747.41;15271984;19;20366;-51
2023/10/21 12:41:37;;;;;;;0.10;0.10;;;;;;;18.63;100.00;96802.66;15271677;19;20014;-53
2023/10/21 12:47:05;;;;;;;0.75;0.30;;;;;;;18.89;100.00;96796.69;15276153;19;20007;-53
2023/10/21 12:52:33;;;;;;;1.05;0.30;;;;;;;18.99;100.00;96801.47;15278794;19;20022;-50
2023/10/21 12:57:58;;;;;;;2.20;0.20;;;;;;;18.96;100.00;96794.63;15278882;19;20094;-51
2023/10/21 13:03:22;;;;;;;0.05;0.05;;;;;;;18.83;100.00;96816.81;15274264;19;20022;-50
2023/10/21 13:08:50;;;;;;;3.50;0.20;;;;;;;18.81;100.00;96828.00;15282838;19;20017;-54
2023/10/21 13:14:23;;;;;;;0.13;0.13;;;;;;;18.68;100.00;96818.28;15275021;19;20029;-53
2023/10/21 13:19:48;;;;;;;0.00;0.00;;;;;;;18.53;100.00;96831.69;15262822;19;20018;-54
2023/10/21 13:25:17;;;;;;;0.28;0.10;;;;;;;18.63;100.00;96834.59;15274929;19;20494;-50
2023/10/21 13:30:50;;;;;;;0.10;0.10;;;;;;;18.93;100.00;96846.94;15280993;19;20035;-53
2023/10/21 13:36:17;;;;;;;0.17;0.10;;;;;;;18.87;100.00;96847.97;15279636;19;20020;-50
2023/10/21 13:41:45;;;;;;;0.10;0.10;;;;;;;18.73;100.00;96842.91;15278157;19;20017;-51
2023/10/21 13:47:13;;;;;;;0.20;0.10;;;;;;;19.05;100.00;96853.13;15274055;19;20421;-52
2023/10/21 13:52:38;;;;;;;1.17;0.10;;;;;;;19.39;100.00;96835.78;15268711;19;20781;-50
2023/10/21 13:58:12;;;;;;;0.30;0.20;;;;;;;19.37;100.00;96844.19;15270888;19;20369;-51
2023/10/21 14:03:40;;;;;;;0.10;0.10;;;;;;;19.35;100.00;96851.81;15272557;19;20011;-51
2023/10/21 14:09:05;;;;;;;0.10;0.10;;;;;;;19.36;100.00;96848.00;15278099;19;20028;-49
2023/10/21 14:14:33;;;;;;;0.40;0.20;;;;;;;19.40;100.00;96854.63;15272526;19;20082;-50
2023/10/21 14:19:59;;;;;;;0.20;0.10;;;;;;;19.52;100.00;96850.91;15274628;19;20637;-53
2023/10/21 14:25:24;;;;;;;0.10;0.10;;;;;;;19.66;100.00;96843.09;15267589;19;20018;-53
2023/10/21 14:30:54;;;;;;;0.25;0.10;;;;;;;19.68;100.00;96860.91;15275641;19;20014;-52
2023/10/21 14:36:25;;;;;;;0.10;0.10;;;;;;;19.78;100.00;96875.75;15275462;19;20674;-52
2023/10/21 14:41:50;;;;;;;0.32;0.20;;;;;;;19.78;100.00;96873.81;15275792;19;20022;-52
2023/10/21 14:47:19;;;;;;;0.30;0.20;;;;;;;19.68;100.00;96892.84;15275991;19;20051;-50
2023/10/21 14:52:44;;;;;;;0.63;0.20;;;;;;;19.27;100.00;96897.88;15266893;19;20010;-49
2023/10/21 14:58:08;;;;;;;0.68;0.20;;;;;;;19.31;100.00;96888.09;15274423;19;20728;-54
2023/10/21 15:03:37;;;;;;;1.92;0.20;;;;;;;19.42;100.00;96889.03;15269362;19;20018;-52
2023/10/21 15:09:01;;;;;;;0.25;0.20;;;;;;;19.52;100.00;96903.63;15272475;19;20018;-49
2023/10/21 15:14:28;;;;;;;1.98;0.20;;;;;;;19.45;100.00;96904.91;15269542;19;20022;-51
2023/10/21 15:20:12;;;;;;;0.17;0.17;;;;;;;19.02;100.00;96918.31;15271530;19;20050;-54
2023/10/21 15:25:37;;;;;;;0.10;0.10;;;;;;;18.54;100.00;96918.72;15263723;19;20022;-52
2023/10/21 15:31:01;;;;;;;0.70;0.20;;;;;;;18.23;100.00;96917.41;15272545;19;20031;-51
2023/10/21 15:36:30;;;;;;;0.63;0.30;;;;;;;17.90;100.00;96932.63;15270205;19;20352;-51
2023/10/21 15:41:55;;;;;;;0.47;0.30;;;;;;;17.72;100.00;96939.94;15271164;19;20017;-53
2023/10/21 15:47:21;;;;;;;1.27;0.40;;;;;;;17.54;100.00;96949.97;15271326;19;20014;-53
2023/10/21 15:52:49;;;;;;;0.57;0.40;;;;;;;17.44;100.00;96957.09;15270861;19;20021;-53
2023/10/21 15:58:14;;;;;;;0.50;0.40;;;;;;;17.40;100.00;96959.47;15264257;19;20016;-51
2023/10/21 16:03:38;;;;;;;0.85;0.30;;;;;;;17.31;100.00;96950.03;15267167;19;20015;-49
2023/10/21 16:09:07;;;;;;;2.03;0.40;;;;;;;17.12;100.00;96958.34;15269747;19;20014;-50
2023/10/21 16:14:32;;;;;;;0.50;0.30;;;;;;;16.94;100.00;96962.88;15260553;19;20032;-53
2023/10/21 16:19:57;;;;;;;0.90;0.17;;;;;;;16.62;100.00;96955.09;15267210;19;20070;-55
2023/10/21 16:25:24;;;;;;;1.27;0.30;;;;;;;16.36;100.00;96963.69;15262260;19;20014;-51
2023/10/21 16:30:49;;;;;;;1.38;0.30;;;;;;;16.16;100.00;96964.84;15259267;19;20015;-50
2023/10/21 16:36:16;;;;;;;0.32;0.30;;;;;;;15.98;100.00;96960.31;15263903;19;20013;-53
2023/10/21 16:41:45;;;;;;;0.30;0.30;;;;;;;15.86;100.00;96968.41;15259380;19;20029;-50
2023/10/21 16:47:09;;;;;;;0.73;0.25;;;;;;;15.74;100.00;96964.78;15264019;19;20006;-50
2023/10/21 16:52:34;;;;;;;1.27;0.20;;;;;;;15.65;100.00;96970.56;15265683;19;20074;-51
2023/10/21 16:58:03;;;;;;;1.45;0.40;;;;;;;15.59;100.00;96979.59;15263970;19;20033;-50
2023/10/21 17:03:28;;;;;;;1.30;0.30;;;;;;;15.53;100.00;96985.97;15257087;19;20488;-49
2023/10/21 17:08:52;;;;;;;0.82;0.25;;;;;;;15.44;100.00;96985.44;15233049;19;20347;-51
2023/10/21 17:14:20;;;;;;;1.33;0.40;;;;;;;15.41;100.00;96999.44;15264428;19;20033;-51
2023/10/21 17:19:46;;;;;;;0.55;0.40;;;;;;;15.43;100.00;97004.66;15265827;19;20039;-52
2023/10/21 17:25:12;;;;;;;0.52;0.30;;;;;;;15.42;100.00;97017.38;15239125;19;20039;-52
2023/10/21 17:30:39;;;;;;;0.65;0.30;;;;;;;15.39;100.00;97021.41;15281680;19;20663;-52
2023/10/21 17:36:04;;;;;;;1.30;1.10;;;;;;;15.29;100.00;97040.09;15272345;19;20029;-53
2023/10/21 17:41:28;;;;;;;1.73;1.00;;;;;;;15.18;100.00;97038.94;15273264;19;20368;-50
2023/10/21 17:46:56;;;;;;;2.78;0.90;;;;;;;15.11;100.00;97038.19;15277999;19;20063;-50
2023/10/21 17:52:20;;;;;;;1.48;0.68;;;;;;;15.03;100.00;97049.34;15277348;19;20017;-52
2023/10/21 17:57:46;;;;;;;0.60;0.50;;;;;;;14.94;100.00;97065.06;15277118;19;20015;-51
2023/10/21 18:03:14;;;;;;;1.33;0.70;;;;;;;14.87;100.00;97075.16;15274301;19;20013;-50
2023/10/21 18:08:39;;;;;;;1.05;0.60;;;;;;;14.78;100.00;97088.97;15270818;19;20066;-52
2023/10/21 18:14:19;;;;;;;0.98;0.60;;;;;;;14.73;100.00;97090.69;15272724;19;20010;-54
2023/10/21 18:19:47;;;;;;;0.80;0.57;;;;;;;14.67;100.00;97108.66;15275791;19;20093;-50
2023/10/21 18:25:14;;;;;;;0.82;0.70;;;;;;;14.63;100.00;97104.72;15264534;19;20033;-54
2023/10/21 18:30:39;;;;;;;1.38;0.73;;;;;;;14.61;100.00;97112.22;15276230;19;20561;-51
2023/10/21 18:36:07;;;;;;;1.92;0.70;;;;;;;14.54;100.00;97108.72;15273166;19;20026;-52
2023/10/21 18:41:33;;;;;;;0.80;0.60;;;;;;;14.47;100.00;97120.44;15263742;19;20018;-47
2023/10/21 18:46:59;;;;;;;3.55;0.68;;;;;;;14.47;100.00;97130.44;15266017;19;20026;-48
2023/10/21 18:52:27;;;;;;;1.10;0.68;;;;;;;14.45;100.00;97127.97;15269626;19;20345;-52
2023/10/21 18:57:51;;;;;;;0.95;0.68;;;;;;;14.41;100.00;97142.97;15274966;19;20021;-53
2023/10/21 19:03:17;;;;;;;0.90;0.63;;;;;;;14.43;100.00;97145.50;15272957;19;20018;-54
2023/10/21 19:08:45;;;;;;;0.60;0.60;;;;;;;14.45;100.00;97167.78;15272905;19;20024;-50
2023/10/21 19:14:12;;;;;;;1.20;0.77;;;;;;;14.41;100.00;97164.66;15266285;19;20022;-51
2023/10/21 19:19:37;;;;;;;0.50;0.50;;;;;;;14.39;100.00;97191.16;15272224;19;20014;-55
2023/10/21 19:25:06;;;;;;;2.75;0.75;;;;;;;14.32;100.00;97198.47;15268591;19;20022;-53
2023/10/21 19:30:33;;;;;;;0.82;0.60;;;;;;;14.27;100.00;97209.13;15268620;19;20097;-54
2023/10/21 19:35:59;;;;;;;1.13;0.80;;;;;;;14.24;100.00;97217.69;15269520;19;20074;-50
2023/10/21 19:41:27;;;;;;;2.53;0.55;;;;;;;14.23;100.00;97226.84;15271040;19;20018;-50
2023/10/21 19:46:53;;;;;;;1.35;0.63;;;;;;;14.19;100.00;97218.31;15264160;19;20017;-49
2023/10/21 19:52:34;;;;;;;1.02;0.58;;;;;;;14.14;100.00;97223.53;12626404;19;10003179;-49
2023/10/21 19:58:03;;;;;;;0.63;0.63;;;;;;;14.00;100.00;97211.94;14404177;19;10001586;-52
2023/10/21 20:03:29;;;;;;;0.95;0.57;;;;;;;13.86;100.00;97222.78;15260762;19;20393;-51
2023/10/21 20:08:54;;;;;;;0.85;0.57;;;;;;;13.83;100.00;97212.38;15263654;19;20094;-52
2023/10/21 20:14:28;;;;;;;2.50;0.50;;;;;;;13.81;100.00;97222.63;15260808;19;20019;-49
2023/10/21 20:19:57;;;;;;;0.65;0.60;;;;;;;13.85;100.00;97226.53;15261999;19;20036;-51
2023/10/21 20:25:24;;;;;;;1.00;0.70;;;;;;;13.82;100.00;97237.78;15261263;19;20022;-48
2023/10/21 20:30:51;;;;;;;1.65;0.50;;;;;;;13.82;100.00;97269.44;15264793;19;20025;-49
2023/10/21 20:36:22;;;;;;;3.47;0.77;;;;;;;13.76;100.00;97271.13;15266003;19;20360;-48
2023/10/21 20:41:48;;;;;;;1.05;0.98;;;;;;;13.75;100.00;97264.03;15280827;19;20018;-46
2023/10/21 20:47:16;;;;;;;3.38;0.80;;;;;;;13.63;100.00;97277.41;15265756;19;20720;-48
2023/10/21 20:52:41;;;;;;;1.92;0.90;;;;;;;13.49;100.00;97286.56;15260700;19;20014;-50
2023/10/21 20:58:10;;;;;;;1.50;0.50;;;;;;;13.39;100.00;97286.91;15266404;19;20018;-48
2023/10/21 21:03:37;;;;;;;4.13;0.70;;;;;;;13.32;100.00;97286.09;15272324;19;20039;-52
2023/10/21 21:09:02;;;;;;;0.77;0.40;;;;;;;13.22;100.00;97319.78;15280313;19;20010;-45
2023/10/21 21:14:28;;;;;;;1.13;0.50;;;;;;;13.20;100.00;97321.03;15292361;19;20031;-49
2023/10/21 21:19:57;;;;;;;2.22;0.60;;;;;;;13.16;100.00;97353.06;15285124;19;20019;-49
2023/10/21 21:25:22;;;;;;;1.73;0.52;;;;;;;13.09;100.00;97380.06;15274590;19;20020;-48
2023/10/21 21:30:47;;;;;;;1.48;0.57;;;;;;;13.06;100.00;97399.41;15275701;19;20110;-49
2023/10/21 21:36:14;;;;;;;0.80;0.60;;;;;;;13.01;100.00;97392.94;15276305;19;20021;-49
2023/10/21 21:41:40;;;;;;;1.58;0.57;;;;;;;13.00;100.00;97421.00;15276884;19;20025;-48
2023/10/21 21:47:07;;;;;;;0.98;0.50;;;;;;;12.97;100.00;97440.34;15272461;19;20030;-52
2023/10/21 21:52:35;;;;;;;1.60;0.60;;;;;;;12.90;100.00;97443.84;15272226;19;20098;-52
2023/10/21 21:57:59;;;;;;;1.27;0.45;;;;;;;12.83;100.00;97452.94;15280355;19;20015;-54
2023/10/21 22:03:24;;;;;;;0.47;0.30;;;;;;;12.81;100.00;97473.94;15274123;19;20476;-49
2023/10/21 22:08:51;;;;;;;0.63;0.30;;;;;;;12.80;100.00;97478.50;15279528;19;20411;-49
2023/10/21 22:14:17;;;;;;;1.17;0.45;;;;;;;12.78;100.00;97481.41;15271557;19;20039;-52
2023/10/21 22:19:41;;;;;;;1.58;0.45;;;;;;;12.74;100.00;97476.63;15279715;19;20014;-53
2023/10/21 22:25:12;;;;;;;0.93;0.38;;;;;;;12.68;100.00;97483.66;15274875;19;20013;-52
2023/10/21 22:30:41;;;;;;;1.55;0.40;;;;;;;12.60;100.00;97500.84;15317942;19;20035;-54
2023/10/21 22:36:07;;;;;;;1.27;0.50;;;;;;;12.55;100.00;97497.06;15324514;19;20010;-55
2023/10/21 22:41:35;;;;;;;0.80;0.32;;;;;;;12.45;100.00;97489.28;15276433;19;20484;-53
2023/10/21 22:47:00;;;;;;;0.40;0.30;;;;;;;12.39;100.00;97484.69;15273991;19;20360;-53
2023/10/21 22:52:27;;;;;;;3.70;0.50;;;;;;;12.34;100.00;97498.78;15273568;19;20777;-52
2023/10/21 22:57:54;;;;;;;1.75;0.30;;;;;;;12.28;100.00;97503.09;15268000;19;20082;-53
2023/10/21 23:03:18;;;;;;;0.35;0.30;;;;;;;12.27;100.00;97519.47;15270288;19;20018;-52
2023/10/21 23:08:43;;;;;;;0.45;0.30;;;;;;;12.24;100.00;97517.16;15274264;19;20019;-53
2023/10/21 23:14:11;;;;;;;1.20;0.40;;;;;;;12.21;100.00;97531.88;15272692;19;20038;-51
2023/10/21 23:19:36;;;;;;;0.65;0.30;;;;;;;12.13;100.00;97540.94;15274948;19;20413;-51
2023/10/21 23:25:00;;;;;;;1.08;0.40;;;;;;;12.00;100.00;97547.06;15267857;19;20476;-50
2023/10/21 23:30:29;;;;;;;1.15;0.20;;;;;;;11.92;100.00;97551.72;15266543;19;20015;-50
2023/10/21 23:35:54;;;;;;;1.33;0.40;;;;;;;11.82;100.00;97535.81;15273925;19;20021;-51
2023/10/21 23:41:22;;;;;;;0.43;0.30;;;;;;;11.75;100.00;97540.31;15274401;19;20019;-50
2023/10/21 23:46:50;;;;;;;0.80;0.30;;;;;;;11.65;100.00;97546.88;15269007;19;20038;-49
2023/10/21 23:52:16;;;;;;;0.75;0.40;;;;;;;11.59;100.00;97554.88;15270131;19;20448;-53
2023/10/21 23:57:42;;;;;;;0.75;0.40;;;;;;;11.54;100.00;97550.06;15272774;19;20028;-51
